createdAt,value
2018-03-25T00:00:44.009Z,171.10
2018-03-25T00:03:12.984Z,166.23
2018-03-25T00:05:41.901Z,163.73
2018-03-25T00:08:10.835Z,147.23
2018-03-25T00:10:39.764Z,145.07
2018-03-25T00:13:08.719Z,144.57
2018-03-25T00:15:37.660Z,146.00
2018-03-25T00:18:06.566Z,145.53
2018-03-25T00:20:35.507Z,147.87
2018-03-25T00:23:04.451Z,137.23
2018-03-25T00:25:33.361Z,133.93
2018-03-25T00:28:02.320Z,154.90
2018-03-25T00:30:31.269Z,151.00
2018-03-25T00:33:00.198Z,151.70
2018-03-25T00:35:29.150Z,173.90
2018-03-25T00:37:58.063Z,183.60
2018-03-25T00:40:27.021Z,183.73
2018-03-25T00:42:55.944Z,172.30
2018-03-25T00:45:24.842Z,184.93
2018-03-25T00:47:53.758Z,172.63
2018-03-25T00:50:22.671Z,164.03
2018-03-25T00:52:51.652Z,173.30
2018-03-25T00:55:20.605Z,157.60
2018-03-25T00:57:49.542Z,153.70
2018-03-25T01:00:18.487Z,148.37
2018-03-25T01:02:47.394Z,168.47
2018-03-25T01:05:16.354Z,176.60
2018-03-25T01:07:45.251Z,170.73
2018-03-25T01:10:14.164Z,168.80
2018-03-25T01:12:43.108Z,169.63
2018-03-25T01:15:12.011Z,162.03
2018-03-25T01:17:40.964Z,166.63
2018-03-25T01:20:09.862Z,166.63
2018-03-25T01:22:38.842Z,176.00
2018-03-25T01:25:07.807Z,163.37
2018-03-25T01:27:36.728Z,176.67
2018-03-25T01:30:05.680Z,177.18
2018-03-25T01:32:34.662Z,175.62
2018-03-25T01:35:03.580Z,181.35
2018-03-25T01:37:32.534Z,182.80
2018-03-25T01:40:01.458Z,177.87
2018-03-25T01:42:30.390Z,177.90
2018-03-25T01:44:59.313Z,185.40
2018-03-25T01:47:28.263Z,189.98
2018-03-25T01:49:57.194Z,184.32
2018-03-25T01:52:26.146Z,184.98
2018-03-25T01:54:55.075Z,179.38
2018-03-25T01:57:24.037Z,176.48
2018-03-25T01:59:52.946Z,178.40
2018-03-25T02:02:21.890Z,180.32
2018-03-25T02:04:50.812Z,179.27
2018-03-25T02:07:19.769Z,177.00
2018-03-25T02:09:48.733Z,174.05
2018-03-25T02:12:17.688Z,178.60
2018-03-25T02:14:46.607Z,170.93
2018-03-25T02:17:15.609Z,180.57
2018-03-25T02:19:44.537Z,179.02
2018-03-25T02:22:13.520Z,176.50
2018-03-25T02:24:42.446Z,182.37
2018-03-25T02:27:11.368Z,187.65
2018-03-25T02:29:40.276Z,175.82
2018-03-25T02:32:09.234Z,191.80
2018-03-25T02:34:38.135Z,185.35
2018-03-25T02:37:07.084Z,188.23
2018-03-25T02:39:36.035Z,197.20
2018-03-25T02:42:04.960Z,182.52
2018-03-25T02:44:33.918Z,187.85
2018-03-25T02:47:02.836Z,176.52
2018-03-25T02:49:31.769Z,193.80
2018-03-25T02:52:00.736Z,176.25
2018-03-25T02:54:29.664Z,190.98
2018-03-25T02:56:58.648Z,187.88
2018-03-25T02:59:27.578Z,179.82
2018-03-25T03:01:56.532Z,173.30
2018-03-25T03:04:25.477Z,169.85
2018-03-25T03:06:54.400Z,178.20
2018-03-25T03:09:23.326Z,163.48
2018-03-25T03:11:52.244Z,174.50
2018-03-25T03:14:21.174Z,162.40
2018-03-25T03:16:50.124Z,174.50
2018-03-25T03:19:19.046Z,181.20
2018-03-25T03:21:47.992Z,178.02
2018-03-25T03:24:16.940Z,178.12
2018-03-25T03:26:45.852Z,188.93
2018-03-25T03:29:14.816Z,194.07
2018-03-25T03:31:43.739Z,197.02
2018-03-25T03:34:12.672Z,202.20
2018-03-25T03:36:41.616Z,218.02
2018-03-25T03:39:10.518Z,204.90
2018-03-25T03:41:39.463Z,205.48
2018-03-25T03:44:08.390Z,229.87
2018-03-25T03:46:37.294Z,195.93
2018-03-25T03:49:06.222Z,202.15
2018-03-25T03:51:35.138Z,190.32
2018-03-25T03:54:04.083Z,191.77
2018-03-25T03:56:33.008Z,191.12
2018-03-25T03:59:01.920Z,183.57
2018-03-25T04:01:30.937Z,178.27
2018-03-25T04:03:59.838Z,194.70
2018-03-25T04:06:28.762Z,182.20
2018-03-25T04:08:57.770Z,192.23
2018-03-25T04:11:26.680Z,186.65
2018-03-25T04:13:55.644Z,183.90
2018-03-25T04:16:24.564Z,187.35
2018-03-25T04:18:53.476Z,196.35
2018-03-25T04:21:22.482Z,193.73
2018-03-25T04:23:51.391Z,202.65
2018-03-25T04:26:20.363Z,192.50
2018-03-25T04:28:49.295Z,196.12
2018-03-25T04:31:18.302Z,199.23
2018-03-25T04:33:47.212Z,198.60
2018-03-25T04:36:16.135Z,198.48
2018-03-25T04:38:45.082Z,222.35
2018-03-25T04:41:14.020Z,217.30
2018-03-25T04:43:42.931Z,211.98
2018-03-25T04:46:11.866Z,211.10
2018-03-25T04:48:40.778Z,224.50
2018-03-25T04:51:09.760Z,225.98
2018-03-25T04:53:38.695Z,227.13
2018-03-25T04:56:07.674Z,222.50
2018-03-25T04:58:36.564Z,211.95
2018-03-25T05:01:05.477Z,218.20
2018-03-25T05:03:34.445Z,211.70
2018-03-25T05:06:03.360Z,202.60
2018-03-25T05:08:32.264Z,204.63
2018-03-25T05:11:01.202Z,206.73
2018-03-25T05:13:30.107Z,213.93
2018-03-25T05:15:59.034Z,216.18
2018-03-25T05:18:28.040Z,218.53
2018-03-25T05:20:56.942Z,214.67
2018-03-25T05:23:25.867Z,213.00
2018-03-25T05:25:54.806Z,203.57
2018-03-25T05:28:23.777Z,204.35
2018-03-25T05:30:52.688Z,205.57
2018-03-25T05:33:21.605Z,214.87
2018-03-25T05:35:50.803Z,199.23
2018-03-25T05:38:19.816Z,199.50
2018-03-25T05:40:48.784Z,205.02
2018-03-25T05:43:17.748Z,198.65
2018-03-25T05:45:46.659Z,225.80
2018-03-25T05:48:15.651Z,282.12
2018-03-25T05:50:44.555Z,377.35
2018-03-25T05:53:13.457Z,418.52
2018-03-25T05:55:42.391Z,343.83
2018-03-25T05:58:11.375Z,290.98
2018-03-25T06:00:40.307Z,251.88
2018-03-25T06:03:09.251Z,280.00
2018-03-25T06:05:38.253Z,321.47
2018-03-25T06:08:07.180Z,283.97
2018-03-25T06:10:36.138Z,212.77
2018-03-25T06:13:05.070Z,172.10
2018-03-25T06:15:34.015Z,170.17
2018-03-25T06:18:02.965Z,141.23
2018-03-25T06:20:31.874Z,124.97
2018-03-25T06:23:00.801Z,122.23
2018-03-25T06:25:29.762Z,134.60
2018-03-25T06:27:58.698Z,129.83
2018-03-25T06:30:27.606Z,107.70
2018-03-25T06:32:56.550Z,99.43
2018-03-25T06:35:25.440Z,99.27
2018-03-25T06:37:54.384Z,99.53
2018-03-25T06:40:23.282Z,109.43
2018-03-25T06:42:52.217Z,105.33
2018-03-25T06:45:21.148Z,102.73
2018-03-25T06:47:50.068Z,95.93
2018-03-25T06:50:19.048Z,94.60
2018-03-25T06:52:48.076Z,86.33
2018-03-25T06:55:16.995Z,85.80
2018-03-25T06:57:45.900Z,84.60
2018-03-25T07:00:14.838Z,82.27
2018-03-25T07:02:43.742Z,80.20
2018-03-25T07:05:12.641Z,81.27
2018-03-25T07:07:41.586Z,83.77
2018-03-25T07:10:10.482Z,85.03
2018-03-25T07:12:39.416Z,82.97
2018-03-25T07:15:08.307Z,84.67
2018-03-25T07:17:37.216Z,77.87
2018-03-25T07:20:06.156Z,82.50
2018-03-25T07:22:35.067Z,77.53
2018-03-25T07:25:04.121Z,79.53
2018-03-25T07:27:33.075Z,77.93
2018-03-25T07:30:02.064Z,78.00
2018-03-25T07:32:30.983Z,76.63
2018-03-25T07:34:59.901Z,77.40
2018-03-25T07:37:28.836Z,75.17
2018-03-25T07:39:57.774Z,73.77
2018-03-25T07:42:26.785Z,70.10
2018-03-25T07:44:55.692Z,68.13
2018-03-25T07:47:24.638Z,75.37
2018-03-25T07:49:53.567Z,64.30
2018-03-25T07:52:22.504Z,67.93
2018-03-25T07:54:51.457Z,68.87
2018-03-25T07:57:20.428Z,69.47
2018-03-25T07:59:49.407Z,72.53
2018-03-25T08:02:18.340Z,69.83
2018-03-25T08:04:47.260Z,67.97
2018-03-25T08:07:16.237Z,61.83
2018-03-25T08:09:45.162Z,63.03
2018-03-25T08:12:14.135Z,62.23
2018-03-25T08:14:43.111Z,62.43
2018-03-25T08:17:12.083Z,58.77
2018-03-25T08:19:40.997Z,58.87
2018-03-25T08:22:09.932Z,54.33
2018-03-25T08:24:38.883Z,52.37
2018-03-25T08:27:07.840Z,52.93
2018-03-25T08:29:36.777Z,52.63
2018-03-25T08:32:05.688Z,52.47
2018-03-25T08:34:34.624Z,47.83
2018-03-25T08:37:03.545Z,39.50
2018-03-25T08:39:32.635Z,34.47
2018-03-25T08:42:01.561Z,36.83
2018-03-25T08:44:30.472Z,33.57
2018-03-25T08:46:59.431Z,32.03
2018-03-25T08:49:28.376Z,32.13
2018-03-25T08:51:57.510Z,46.47
2018-03-25T08:54:26.459Z,35.33
2018-03-25T08:56:55.490Z,39.73
2018-03-25T08:59:24.523Z,40.53
2018-03-25T09:01:53.487Z,37.80
2018-03-25T09:04:22.450Z,38.47
2018-03-25T09:06:51.367Z,30.80
2018-03-25T09:09:20.351Z,30.30
2018-03-25T09:11:49.335Z,29.90
2018-03-25T09:14:18.288Z,31.30
2018-03-25T09:16:47.240Z,30.97
2018-03-25T09:19:16.214Z,32.83
2018-03-25T09:21:45.167Z,31.97
2018-03-25T09:24:14.114Z,33.87
2018-03-25T09:26:43.076Z,33.33
2018-03-25T09:29:12.029Z,34.37
2018-03-25T09:31:40.999Z,34.87
2018-03-25T09:34:09.940Z,34.20
2018-03-25T09:36:38.902Z,35.67
2018-03-25T09:39:07.868Z,37.13
2018-03-25T09:41:36.805Z,36.33
2018-03-25T09:44:05.769Z,35.13
2018-03-25T09:46:34.728Z,41.80
2018-03-25T09:49:03.664Z,42.00
2018-03-25T09:51:32.644Z,39.13
2018-03-25T09:54:01.590Z,36.33
2018-03-25T09:56:30.533Z,36.70
2018-03-25T09:58:59.554Z,38.67
2018-03-25T10:01:39.241Z,36.10
2018-03-25T10:04:08.216Z,35.37
2018-03-25T10:06:37.149Z,44.60
2018-03-25T10:09:06.105Z,36.97
2018-03-25T10:11:35.029Z,39.77
2018-03-25T10:14:04.029Z,37.97
2018-03-25T10:16:32.996Z,39.90
2018-03-25T10:19:01.915Z,37.03
2018-03-25T10:21:30.862Z,37.40
2018-03-25T10:23:59.826Z,40.57
2018-03-25T10:26:28.873Z,39.40
2018-03-25T10:28:57.858Z,38.63
2018-03-25T10:31:26.798Z,38.60
2018-03-25T10:33:55.760Z,41.70
2018-03-25T10:36:24.677Z,37.73
2018-03-25T10:38:53.607Z,40.17
2018-03-25T10:41:22.548Z,41.43
2018-03-25T10:43:51.463Z,40.17
2018-03-25T10:46:20.420Z,39.73
2018-03-25T10:48:49.386Z,38.17
2018-03-25T10:51:18.347Z,35.70
2018-03-25T10:53:47.269Z,39.87
2018-03-25T10:56:16.185Z,42.33
2018-03-25T10:58:45.128Z,37.90
2018-03-25T11:01:14.046Z,39.90
2018-03-25T11:03:43.101Z,43.23
2018-03-25T11:06:12.003Z,44.40
2018-03-25T11:08:40.908Z,42.00
2018-03-25T11:11:09.828Z,40.80
2018-03-25T11:13:38.729Z,43.40
2018-03-25T11:16:07.703Z,57.47
2018-03-25T11:18:36.600Z,52.03
2018-03-25T11:21:05.532Z,56.57
2018-03-25T11:23:34.460Z,44.83
2018-03-25T11:26:03.395Z,50.07
2018-03-25T11:28:32.329Z,41.73
2018-03-25T11:31:01.246Z,44.50
2018-03-25T11:33:30.198Z,41.50
2018-03-25T11:35:59.117Z,40.40
2018-03-25T11:38:28.131Z,45.17
2018-03-25T11:40:57.068Z,40.33
2018-03-25T11:43:25.971Z,38.90
2018-03-25T11:45:55.080Z,42.90
2018-03-25T11:48:24.328Z,42.23
2018-03-25T11:50:53.317Z,43.83
2018-03-25T11:53:22.215Z,43.53
2018-03-25T11:55:51.241Z,37.97
2018-03-25T11:58:20.235Z,40.33
2018-03-25T12:00:49.143Z,47.17
2018-03-25T12:03:18.125Z,40.80
2018-03-25T12:05:47.049Z,40.20
2018-03-25T12:08:15.998Z,43.30
2018-03-25T12:10:44.952Z,41.20
2018-03-25T12:13:13.838Z,39.77
2018-03-25T12:15:42.751Z,44.67
2018-03-25T12:18:11.699Z,37.60
2018-03-25T12:20:40.672Z,39.10
2018-03-25T12:23:09.620Z,38.67
2018-03-25T12:25:38.540Z,40.53
2018-03-25T12:28:07.512Z,42.20
2018-03-25T12:30:36.486Z,40.97
2018-03-25T12:33:05.419Z,41.23
2018-03-25T12:35:34.370Z,41.47
2018-03-25T12:38:03.310Z,38.90
2018-03-25T12:40:32.270Z,40.07
2018-03-25T12:43:01.248Z,42.57
2018-03-25T12:45:30.149Z,39.00
2018-03-25T12:47:59.064Z,43.93
2018-03-25T12:50:28.008Z,55.57
2018-03-25T12:52:56.974Z,49.83
2018-03-25T12:55:25.893Z,57.63
2018-03-25T12:57:54.912Z,63.33
2018-03-25T13:00:23.892Z,49.33
2018-03-25T13:02:52.811Z,39.60
2018-03-25T13:05:21.769Z,50.33
2018-03-25T13:07:50.688Z,38.30
2018-03-25T13:10:19.579Z,44.03
2018-03-25T13:12:48.536Z,44.73
2018-03-25T13:15:17.446Z,41.70
2018-03-25T13:17:46.401Z,39.83
2018-03-25T13:20:15.424Z,40.37
2018-03-25T13:22:44.332Z,41.23
2018-03-25T13:25:13.275Z,35.60
2018-03-25T13:27:42.203Z,34.47
2018-03-25T13:30:11.119Z,37.77
2018-03-25T13:32:40.071Z,35.00
2018-03-25T13:35:08.984Z,35.03
2018-03-25T13:37:37.898Z,34.23
2018-03-25T13:40:06.852Z,37.10
2018-03-25T13:42:35.754Z,37.43
2018-03-25T13:45:04.688Z,38.73
2018-03-25T13:47:33.667Z,35.77
2018-03-25T13:50:02.577Z,32.93
2018-03-25T13:52:31.542Z,34.43
2018-03-25T13:55:00.479Z,34.27
2018-03-25T13:57:29.402Z,34.03
2018-03-25T13:59:58.340Z,34.23
2018-03-25T14:02:27.236Z,32.50
2018-03-25T14:04:56.166Z,33.03
2018-03-25T14:07:25.087Z,39.53
2018-03-25T14:09:54.134Z,35.03
2018-03-25T14:12:23.079Z,38.00
2018-03-25T14:14:51.997Z,40.60
2018-03-25T14:17:21.015Z,39.93
2018-03-25T14:19:49.928Z,33.63
2018-03-25T14:22:18.859Z,36.77
2018-03-25T14:24:47.812Z,38.93
2018-03-25T14:27:16.712Z,34.57
2018-03-25T14:29:45.650Z,32.37
2018-03-25T14:32:14.539Z,38.37
2018-03-25T14:34:43.503Z,34.40
2018-03-25T14:37:12.394Z,35.17
2018-03-25T14:39:41.285Z,34.53
2018-03-25T14:42:10.208Z,36.10
2018-03-25T14:44:39.113Z,30.43
2018-03-25T14:47:08.069Z,33.43
2018-03-25T14:49:36.972Z,31.27
2018-03-25T14:52:05.869Z,33.77
2018-03-25T14:54:34.795Z,33.67
2018-03-25T14:57:03.758Z,35.63
2018-03-25T14:59:32.654Z,33.70
2018-03-25T15:02:01.790Z,33.83
2018-03-25T15:04:30.672Z,29.97
2018-03-25T15:06:59.604Z,23.07
2018-03-25T15:09:28.540Z,27.83
2018-03-25T15:11:57.478Z,30.50
2018-03-25T15:14:26.410Z,28.10
2018-03-25T15:16:55.305Z,27.23
2018-03-25T15:19:24.312Z,23.30
2018-03-25T15:21:53.210Z,25.43
2018-03-25T15:24:22.159Z,23.80
2018-03-25T15:26:51.043Z,25.20
2018-03-25T15:29:19.995Z,25.17
2018-03-25T15:31:48.942Z,34.97
2018-03-25T15:34:18.738Z,32.63
2018-03-25T15:36:47.661Z,35.90
2018-03-25T15:39:16.615Z,34.40
2018-03-25T15:41:45.511Z,33.40
2018-03-25T15:44:14.424Z,31.20
2018-03-25T15:46:43.359Z,33.57
2018-03-25T15:49:12.281Z,34.63
2018-03-25T15:51:41.242Z,34.80
2018-03-25T15:54:10.140Z,35.43
2018-03-25T15:56:39.090Z,34.03
2018-03-25T15:59:07.988Z,35.60
2018-03-25T16:01:36.895Z,39.30
2018-03-25T16:04:05.868Z,37.53
2018-03-25T16:06:34.786Z,34.47
2018-03-25T16:09:03.717Z,37.50
2018-03-25T16:11:32.654Z,47.73
2018-03-25T16:14:01.566Z,55.90
2018-03-25T16:16:30.501Z,53.80
2018-03-25T16:18:59.518Z,79.47
2018-03-25T16:21:28.466Z,88.57
2018-03-25T16:23:57.372Z,61.07
2018-03-25T16:26:26.272Z,60.73
2018-03-25T16:28:55.220Z,49.87
2018-03-25T16:31:24.145Z,41.77
2018-03-25T16:33:53.062Z,40.50
2018-03-25T16:36:21.999Z,42.47
2018-03-25T16:38:50.964Z,41.60
2018-03-25T16:41:19.871Z,44.83
2018-03-25T16:43:48.804Z,45.43
2018-03-25T16:46:17.747Z,46.50
2018-03-25T16:48:46.646Z,53.73
2018-03-25T16:51:15.610Z,47.53
2018-03-25T16:53:44.515Z,55.37
2018-03-25T16:56:13.466Z,21.93
2018-03-25T16:58:42.382Z,22.53
2018-03-25T17:01:11.271Z,21.40
2018-03-25T17:03:40.226Z,23.10
2018-03-25T17:06:09.146Z,26.63
2018-03-25T17:08:38.072Z,26.90
2018-03-25T17:11:06.981Z,28.17
2018-03-25T17:13:35.927Z,24.47
2018-03-25T17:16:04.827Z,28.50
2018-03-25T17:18:33.791Z,27.03
2018-03-25T17:21:02.694Z,30.17
2018-03-25T17:23:31.689Z,27.63
2018-03-25T17:26:00.616Z,26.53
2018-03-25T17:28:29.518Z,29.03
2018-03-25T17:30:58.444Z,36.40
2018-03-25T17:33:27.350Z,40.60
2018-03-25T17:35:56.239Z,39.07
2018-03-25T17:38:25.227Z,35.33
2018-03-25T17:40:54.116Z,38.90
2018-03-25T17:43:23.039Z,35.07
2018-03-25T17:45:51.941Z,37.13
2018-03-25T17:48:20.867Z,36.87
2018-03-25T17:50:49.767Z,40.50
2018-03-25T17:53:18.682Z,44.03
2018-03-25T17:55:47.648Z,47.13
2018-03-25T17:58:16.546Z,60.40
2018-03-25T18:00:45.452Z,61.17
2018-03-25T18:03:14.367Z,59.73
2018-03-25T18:05:43.335Z,58.53
2018-03-25T18:08:12.230Z,63.23
2018-03-25T18:10:41.175Z,66.60
2018-03-25T18:13:10.080Z,73.40
2018-03-25T18:15:39.147Z,74.37
2018-03-25T18:18:08.094Z,98.83
2018-03-25T18:20:37.028Z,117.33
2018-03-25T18:23:05.995Z,97.83
2018-03-25T18:25:34.935Z,89.67
2018-03-25T18:28:03.967Z,82.27
2018-03-25T18:30:32.923Z,121.00
2018-03-25T18:33:01.929Z,133.40
2018-03-25T18:35:30.845Z,126.20
2018-03-25T18:37:59.840Z,97.33
2018-03-25T18:40:28.802Z,86.57
2018-03-25T18:42:57.799Z,86.20
2018-03-25T18:45:26.705Z,98.73
2018-03-25T18:47:55.620Z,101.40
2018-03-25T18:50:24.556Z,93.10
2018-03-25T18:52:53.513Z,104.60
2018-03-25T18:55:22.437Z,116.07
2018-03-25T18:57:51.353Z,107.13
2018-03-25T19:00:20.285Z,107.77
2018-03-25T19:02:49.175Z,96.97
2018-03-25T19:05:18.105Z,97.80
2018-03-25T19:07:47.051Z,107.83
2018-03-25T19:10:16.001Z,105.93
2018-03-25T19:12:44.912Z,97.97
2018-03-25T19:15:13.836Z,95.40
2018-03-25T19:17:42.771Z,95.93
2018-03-25T19:20:11.684Z,110.07
2018-03-25T19:22:40.619Z,111.23
2018-03-25T19:25:09.596Z,113.77
2018-03-25T19:27:38.513Z,117.17
2018-03-25T19:30:07.459Z,142.43
2018-03-25T19:32:36.361Z,153.43
2018-03-25T19:35:05.277Z,155.13
2018-03-25T19:37:34.249Z,141.37
2018-03-25T19:40:03.184Z,148.50
2018-03-25T19:42:32.129Z,140.13
2018-03-25T19:45:01.089Z,132.37
2018-03-25T19:47:30.055Z,120.33
2018-03-25T19:49:59.021Z,116.47
2018-03-25T19:52:27.914Z,117.57
2018-03-25T19:54:56.835Z,126.17
2018-03-25T19:57:25.788Z,133.93
2018-03-25T19:59:54.708Z,124.60
2018-03-25T20:02:23.655Z,131.17
2018-03-25T20:04:52.569Z,132.70
2018-03-25T20:07:21.550Z,136.60
2018-03-25T20:09:50.480Z,125.00
2018-03-25T20:12:19.406Z,117.87
2018-03-25T20:14:48.380Z,110.13
2018-03-25T20:17:17.305Z,119.00
2018-03-25T20:19:46.216Z,138.70
2018-03-25T20:22:15.211Z,146.87
2018-03-25T20:24:44.112Z,137.97
2018-03-25T20:27:13.074Z,133.43
2018-03-25T20:29:42.012Z,134.10
2018-03-25T20:32:10.928Z,113.83
2018-03-25T20:34:40.008Z,112.97
2018-03-25T20:37:08.933Z,108.80
2018-03-25T20:39:37.834Z,103.50
2018-03-25T20:42:07.006Z,104.37
2018-03-25T20:44:35.910Z,98.47
2018-03-25T20:47:04.868Z,109.60
2018-03-25T20:49:33.815Z,104.27
2018-03-25T20:52:02.721Z,107.97
2018-03-25T20:54:31.716Z,103.30
2018-03-25T20:57:00.632Z,102.93
2018-03-25T20:59:29.560Z,98.43
2018-03-25T21:01:58.492Z,103.33
2018-03-25T21:04:27.445Z,103.77
2018-03-25T21:06:56.466Z,106.60
2018-03-25T21:09:25.381Z,103.17
2018-03-25T21:11:54.278Z,93.50
2018-03-25T21:14:23.256Z,92.30
2018-03-25T21:16:52.155Z,94.50
2018-03-25T21:19:21.059Z,91.37
2018-03-25T21:21:50.062Z,103.30
2018-03-25T21:24:18.958Z,102.33
2018-03-25T21:26:47.863Z,112.37
2018-03-25T21:29:16.872Z,113.90
2018-03-25T21:31:45.802Z,111.87
2018-03-25T21:34:14.740Z,111.93
2018-03-25T21:36:43.713Z,109.37
2018-03-25T21:39:12.640Z,118.17
2018-03-25T21:41:41.588Z,116.57
2018-03-25T21:44:10.530Z,103.97
2018-03-25T21:46:39.444Z,114.07
2018-03-25T21:49:08.381Z,105.43
2018-03-25T21:51:37.307Z,109.17
2018-03-25T21:54:06.259Z,103.43
2018-03-25T21:56:35.179Z,103.73
2018-03-25T21:59:04.166Z,105.70
2018-03-25T22:01:33.072Z,107.93
2018-03-25T22:04:01.990Z,100.93
2018-03-25T22:06:30.949Z,101.53
2018-03-25T22:08:59.912Z,103.97
2018-03-25T22:11:28.855Z,100.83
2018-03-25T22:13:57.809Z,99.13
2018-03-25T22:16:26.755Z,105.10
2018-03-25T22:18:59.382Z,104.40
2018-03-25T22:21:28.323Z,103.33
2018-03-25T22:23:57.260Z,103.03
2018-03-25T22:26:26.412Z,99.37
2018-03-25T22:28:55.325Z,98.40
2018-03-25T22:31:24.408Z,94.97
2018-03-25T22:33:53.364Z,98.13
2018-03-25T22:36:22.279Z,95.30
2018-03-25T22:38:51.259Z,106.37
2018-03-25T22:41:20.173Z,102.73
2018-03-25T22:43:49.098Z,103.23
2018-03-25T22:46:18.054Z,94.10
2018-03-25T22:48:46.967Z,99.93
2018-03-25T22:51:15.902Z,99.07
2018-03-25T22:53:44.833Z,99.00
2018-03-25T22:56:13.748Z,96.50
2018-03-25T22:58:42.706Z,100.57
2018-03-25T23:01:11.614Z,100.70
2018-03-25T23:03:40.927Z,103.87
2018-03-25T23:06:09.881Z,102.50
2018-03-25T23:08:38.788Z,99.73
2018-03-25T23:11:07.733Z,96.70
2018-03-25T23:13:36.678Z,103.53
2018-03-25T23:16:05.592Z,104.90
2018-03-25T23:18:34.594Z,105.83
2018-03-25T23:21:03.528Z,102.80
2018-03-25T23:23:32.438Z,108.30
2018-03-25T23:26:01.383Z,107.43
2018-03-25T23:28:30.290Z,120.57
2018-03-25T23:30:59.223Z,127.93
2018-03-25T23:33:28.146Z,129.50
2018-03-25T23:35:57.074Z,140.90
2018-03-25T23:38:26.008Z,130.27
2018-03-25T23:40:54.915Z,136.77
2018-03-25T23:43:23.863Z,127.20
2018-03-25T23:45:52.766Z,130.80
2018-03-25T23:48:21.665Z,127.67
2018-03-25T23:50:50.742Z,130.80
2018-03-25T23:53:19.673Z,129.73
2018-03-25T23:55:48.650Z,121.50
2018-03-25T23:58:17.562Z,121.47
